createdAt,value
2019-04-07T00:01:05.185Z,99.90
2019-04-07T00:02:11.053Z,99.90
2019-04-07T00:03:16.247Z,99.90
2019-04-07T00:04:21.574Z,99.90
2019-04-07T00:05:26.767Z,99.90
2019-04-07T00:06:31.833Z,99.90
2019-04-07T00:07:36.865Z,99.90
2019-04-07T00:08:43.266Z,99.90
2019-04-07T00:09:48.342Z,99.90
2019-04-07T00:10:53.368Z,99.90
2019-04-07T00:12:00.461Z,99.90
2019-04-07T00:13:05.768Z,99.90
2019-04-07T00:14:11.116Z,99.90
2019-04-07T00:15:16.839Z,99.90
2019-04-07T00:16:22.052Z,99.90
2019-04-07T00:17:27.374Z,99.90
2019-04-07T00:18:32.533Z,99.90
2019-04-07T00:19:37.763Z,99.90
2019-04-07T00:20:42.921Z,99.90
2019-04-07T00:21:48.945Z,99.90
2019-04-07T00:22:55.117Z,99.90
2019-04-07T00:24:02.295Z,99.90
2019-04-07T00:25:07.574Z,99.90
2019-04-07T00:26:12.829Z,99.90
2019-04-07T00:27:17.960Z,99.90
2019-04-07T00:28:24.045Z,99.90
2019-04-07T00:29:30.277Z,99.90
2019-04-07T00:30:36.130Z,99.90
2019-04-07T00:31:41.532Z,99.90
2019-04-07T00:32:46.791Z,99.90
2019-04-07T00:33:51.931Z,99.90
2019-04-07T00:34:57.071Z,99.90
2019-04-07T00:36:02.701Z,99.90
2019-04-07T00:37:07.974Z,99.90
2019-04-07T00:38:13.101Z,99.90
2019-04-07T00:39:18.325Z,99.90
2019-04-07T00:40:24.031Z,99.90
2019-04-07T00:41:29.971Z,99.90
2019-04-07T00:42:35.339Z,99.90
2019-04-07T00:43:40.623Z,99.90
2019-04-07T00:44:46.565Z,99.90
2019-04-07T00:45:52.477Z,99.90
2019-04-07T00:46:57.725Z,99.90
2019-04-07T00:48:02.957Z,99.90
2019-04-07T00:49:08.316Z,99.90
2019-04-07T00:50:14.154Z,99.90
2019-04-07T00:51:20.106Z,99.90
2019-04-07T00:52:25.809Z,99.90
2019-04-07T00:53:30.971Z,99.90
2019-04-07T00:54:36.057Z,99.90
2019-04-07T00:55:41.743Z,99.90
2019-04-07T00:56:47.493Z,99.90
2019-04-07T00:57:52.964Z,99.90
2019-04-07T00:58:58.739Z,99.90
2019-04-07T01:00:05.947Z,99.90
2019-04-07T01:01:15.171Z,99.90
2019-04-07T01:02:21.257Z,99.90
2019-04-07T01:03:26.910Z,99.90
2019-04-07T01:04:32.731Z,99.90
2019-04-07T01:05:40.736Z,99.90
2019-04-07T01:06:44.831Z,99.90
2019-04-07T01:07:50.038Z,99.90
2019-04-07T01:08:55.084Z,99.90
2019-04-07T01:10:00.704Z,99.90
2019-04-07T01:11:06.303Z,99.90
2019-04-07T01:23:01.740Z,99.90
2019-04-07T01:24:07.297Z,99.90
2019-04-07T01:25:12.628Z,99.90
2019-04-07T01:26:18.488Z,99.90
2019-04-07T01:27:23.604Z,99.90
2019-04-07T01:28:28.813Z,99.90
2019-04-07T01:29:34.182Z,99.90
2019-04-07T01:30:39.476Z,99.90
2019-04-07T01:31:45.087Z,99.90
2019-04-07T01:32:50.965Z,99.90
2019-04-07T01:33:56.317Z,99.90
2019-04-07T01:35:02.488Z,99.90
2019-04-07T01:36:07.597Z,99.90
2019-04-07T01:37:13.617Z,99.90
2019-04-07T01:38:18.792Z,99.90
2019-04-07T01:39:24.115Z,99.90
2019-04-07T01:40:29.879Z,99.90
2019-04-07T01:41:48.670Z,99.90
2019-04-07T01:43:17.504Z,99.90
2019-04-07T01:44:30.933Z,99.90
2019-04-07T01:45:55.331Z,99.90
2019-04-07T01:47:20.064Z,99.90
2019-04-07T01:48:43.115Z,99.90
2019-04-07T01:50:07.735Z,99.90
2019-04-07T01:51:34.907Z,99.90
2019-04-07T01:52:59.224Z,99.90
2019-04-07T01:54:21.891Z,99.90
2019-04-07T01:55:58.682Z,99.90
2019-04-07T01:57:23.503Z,99.90
2019-04-07T01:58:37.164Z,99.90
2019-04-07T02:00:04.283Z,99.90
2019-04-07T02:01:34.827Z,99.90
2019-04-07T02:02:54.606Z,99.90
2019-04-07T02:04:13.852Z,99.90
2019-04-07T02:05:59.348Z,99.90
2019-04-07T02:07:24.633Z,99.90
2019-04-07T02:08:36.300Z,99.90
2019-04-07T02:10:03.319Z,99.90
2019-04-07T02:11:33.941Z,99.90
2019-04-07T02:12:57.760Z,99.90
2019-04-07T02:14:17.112Z,99.90
2019-04-07T02:15:48.188Z,99.90
2019-04-07T02:17:13.064Z,99.90
2019-04-07T02:18:31.299Z,99.90
2019-04-07T02:19:47.249Z,99.90
2019-04-07T02:21:10.217Z,99.90
2019-04-07T02:22:28.973Z,99.90
2019-04-07T02:23:52.638Z,99.90
2019-04-07T02:25:15.367Z,99.90
2019-04-07T02:26:31.739Z,99.90
2019-04-07T02:27:55.654Z,99.90
2019-04-07T02:29:17.958Z,99.90
2019-04-07T02:30:41.581Z,99.90
2019-04-07T02:32:15.450Z,99.90
2019-04-07T02:33:35.069Z,99.90
2019-04-07T02:34:49.297Z,99.90
2019-04-07T02:36:17.802Z,99.90
2019-04-07T02:37:33.343Z,99.90
2019-04-07T02:38:54.763Z,99.90
2019-04-07T02:40:23.826Z,99.90
2019-04-07T02:41:46.513Z,99.90
2019-04-07T02:43:19.728Z,99.90
2019-04-07T02:44:33.704Z,99.90
2019-04-07T02:46:06.796Z,99.90
2019-04-07T02:47:22.616Z,99.90
2019-04-07T02:48:51.130Z,99.90
2019-04-07T02:50:10.210Z,99.90
2019-04-07T02:51:43.620Z,99.90
2019-04-07T02:53:07.510Z,99.90
2019-04-07T02:54:40.685Z,99.90
2019-04-07T02:56:10.748Z,99.90
2019-04-07T02:57:44.551Z,99.90
2019-04-07T02:59:16.165Z,99.90
2019-04-07T03:00:50.754Z,99.90
2019-04-07T03:02:08.372Z,99.90
2019-04-07T03:03:41.437Z,99.90
2019-04-07T03:05:04.991Z,99.90
2019-04-07T03:06:38.419Z,99.90
2019-04-07T03:07:55.997Z,99.90
2019-04-07T03:09:18.942Z,99.90
2019-04-07T03:10:31.109Z,99.90
2019-04-07T03:11:46.581Z,99.90
2019-04-07T03:13:14.633Z,99.90
2019-04-07T03:14:23.959Z,99.90
2019-04-07T03:15:38.739Z,99.90
2019-04-07T03:17:08.192Z,99.90
2019-04-07T03:18:25.264Z,99.90
2019-04-07T03:19:39.278Z,99.90
2019-04-07T03:21:03.633Z,99.90
2019-04-07T03:22:26.880Z,99.90
2019-04-07T03:23:58.586Z,99.90
2019-04-07T03:25:38.658Z,99.90
2019-04-07T03:27:01.482Z,99.90
2019-04-07T03:28:25.891Z,99.90
2019-04-07T03:29:59.579Z,99.90
2019-04-07T03:31:17.789Z,99.90
2019-04-07T03:32:45.808Z,99.90
2019-04-07T03:34:06.392Z,99.90
2019-04-07T03:35:32.856Z,99.90
2019-04-07T03:37:21.696Z,99.90
2019-04-07T03:38:36.731Z,99.90
2019-04-07T03:40:00.805Z,99.90
2019-04-07T03:41:29.062Z,99.90
2019-04-07T03:42:56.146Z,99.90
2019-04-07T03:44:20.440Z,99.90
2019-04-07T03:45:45.674Z,99.90
2019-04-07T03:47:07.310Z,99.90
2019-04-07T03:48:26.401Z,99.90
2019-04-07T03:50:07.055Z,99.90
2019-04-07T03:51:24.359Z,99.90
2019-04-07T03:52:51.567Z,99.90
2019-04-07T03:54:10.709Z,99.90
2019-04-07T03:55:33.593Z,99.90
2019-04-07T03:56:56.684Z,99.90
2019-04-07T03:58:16.989Z,99.90
2019-04-07T03:59:40.630Z,99.90
2019-04-07T04:01:33.228Z,99.90
2019-04-07T04:02:46.606Z,99.90
2019-04-07T04:04:13.747Z,99.90
2019-04-07T04:05:45.591Z,99.90
2019-04-07T04:07:31.514Z,99.90
2019-04-07T04:08:38.757Z,99.90
2019-04-07T04:10:09.803Z,99.90
2019-04-07T04:11:34.236Z,99.90
2019-04-07T04:12:45.752Z,99.90
2019-04-07T04:14:09.223Z,99.90
2019-04-07T04:15:20.856Z,99.90
2019-04-07T04:16:32.007Z,99.90
2019-04-07T04:17:37.241Z,99.90
2019-04-07T04:18:42.637Z,99.90
2019-04-07T04:19:48.170Z,99.90
2019-04-07T04:20:54.467Z,99.90
2019-04-07T04:22:00.695Z,99.90
2019-04-07T04:23:05.955Z,99.90
2019-04-07T04:24:12.179Z,99.90
2019-04-07T04:25:17.452Z,99.90
2019-04-07T04:26:23.662Z,99.90
2019-04-07T04:27:28.981Z,99.90
2019-04-07T04:28:34.742Z,99.90
2019-04-07T04:29:39.969Z,99.90
2019-04-07T04:30:45.176Z,99.90
2019-04-07T04:31:50.759Z,99.90
2019-04-07T04:32:55.850Z,99.90
2019-04-07T04:34:01.573Z,99.90
2019-04-07T04:35:07.286Z,99.90
2019-04-07T04:36:13.450Z,99.90
2019-04-07T04:37:34.536Z,99.90
2019-04-07T04:38:26.243Z,99.90
2019-04-07T04:39:31.534Z,99.90
2019-04-07T04:40:37.502Z,99.90
2019-04-07T04:41:42.766Z,99.90
2019-04-07T04:42:48.513Z,99.90
2019-04-07T04:43:54.718Z,99.90
2019-04-07T04:45:00.641Z,99.90
2019-04-07T04:46:09.525Z,99.90
2019-04-07T04:47:13.512Z,99.90
2019-04-07T04:48:19.574Z,99.90
2019-04-07T04:49:24.944Z,99.90
2019-04-07T04:50:30.479Z,99.90
2019-04-07T04:51:39.291Z,99.90
2019-04-07T04:52:42.845Z,99.90
2019-04-07T04:53:50.408Z,99.90
2019-04-07T04:54:55.917Z,99.90
2019-04-07T04:56:01.027Z,99.90
2019-04-07T04:57:08.954Z,99.90
2019-04-07T04:58:13.269Z,99.90
2019-04-07T04:59:18.354Z,99.90
2019-04-07T05:00:24.402Z,99.90
2019-04-07T05:01:29.793Z,99.90
2019-04-07T05:02:35.238Z,99.90
2019-04-07T05:03:40.566Z,99.90
2019-04-07T05:04:45.922Z,99.90
2019-04-07T05:05:51.245Z,99.90
2019-04-07T05:06:56.995Z,99.90
2019-04-07T05:08:05.078Z,99.90
2019-04-07T05:09:09.168Z,99.90
2019-04-07T05:10:14.173Z,99.90
2019-04-07T05:11:19.239Z,99.90
2019-04-07T05:12:24.440Z,99.90
2019-04-07T05:13:29.586Z,99.90
2019-04-07T05:14:36.096Z,99.90
2019-04-07T05:15:41.250Z,99.90
2019-04-07T05:16:46.447Z,99.90
2019-04-07T05:17:51.647Z,99.90
2019-04-07T05:18:57.330Z,99.90
2019-04-07T05:20:02.668Z,99.90
2019-04-07T05:21:08.758Z,99.90
2019-04-07T05:22:14.497Z,99.90
2019-04-07T05:23:20.554Z,99.90
2019-04-07T05:24:25.901Z,99.90
2019-04-07T05:25:31.078Z,99.90
2019-04-07T05:26:36.557Z,99.90
2019-04-07T05:27:42.440Z,99.90
2019-04-07T05:28:48.372Z,99.90
2019-04-07T05:29:53.563Z,99.90
2019-04-07T05:30:59.110Z,99.90
2019-04-07T05:32:04.590Z,99.90
2019-04-07T05:33:09.965Z,99.90
2019-04-07T05:34:19.308Z,99.90
2019-04-07T05:35:22.428Z,99.90
2019-04-07T05:36:27.726Z,99.90
2019-04-07T05:37:32.917Z,99.90
2019-04-07T05:38:39.536Z,99.90
2019-04-07T05:39:44.804Z,99.90
2019-04-07T05:40:50.102Z,99.90
2019-04-07T05:41:55.211Z,99.90
2019-04-07T05:43:00.788Z,99.90
2019-04-07T05:44:06.343Z,99.90
2019-04-07T05:45:11.631Z,99.90
2019-04-07T05:46:17.660Z,99.90
2019-04-07T05:47:22.883Z,99.90
2019-04-07T05:48:28.020Z,99.90
2019-04-07T05:49:33.391Z,99.90
2019-04-07T05:50:38.673Z,99.90
2019-04-07T05:51:44.570Z,99.90
2019-04-07T05:52:50.014Z,99.90
2019-04-07T05:53:55.094Z,99.90
2019-04-07T05:55:00.147Z,99.90
2019-04-07T05:56:06.002Z,99.90
2019-04-07T05:57:11.902Z,99.90
2019-04-07T05:58:17.926Z,99.90
2019-04-07T05:59:23.163Z,99.90
2019-04-07T06:00:28.589Z,99.90
2019-04-07T06:01:34.479Z,99.90
2019-04-07T06:02:39.792Z,99.90
2019-04-07T06:03:45.768Z,99.90
2019-04-07T06:04:51.353Z,99.90
2019-04-07T06:05:57.207Z,99.90
2019-04-07T06:07:03.605Z,99.90
2019-04-07T06:08:22.397Z,99.90
2019-04-07T06:09:19.456Z,99.90
2019-04-07T06:10:26.444Z,99.90
2019-04-07T06:11:33.095Z,99.90
2019-04-07T06:12:39.322Z,99.90
2019-04-07T06:13:44.634Z,99.90
2019-04-07T06:14:51.276Z,99.90
2019-04-07T06:15:57.555Z,99.90
2019-04-07T06:17:02.899Z,99.90
2019-04-07T06:18:08.341Z,99.90
2019-04-07T06:19:13.490Z,99.90
2019-04-07T06:20:18.948Z,99.90
2019-04-07T06:21:24.354Z,99.90
2019-04-07T06:22:29.585Z,99.90
2019-04-07T06:23:35.412Z,99.90
2019-04-07T06:24:40.695Z,99.90
2019-04-07T06:25:46.416Z,99.90
2019-04-07T06:26:53.278Z,99.90
2019-04-07T06:27:58.878Z,99.90
2019-04-07T06:29:04.776Z,99.90
2019-04-07T06:30:10.948Z,99.90
2019-04-07T06:31:16.241Z,99.90
2019-04-07T06:32:21.894Z,99.90
2019-04-07T06:33:27.529Z,99.90
2019-04-07T06:34:32.665Z,99.90
2019-04-07T06:35:38.032Z,99.90
2019-04-07T06:36:43.175Z,99.90
2019-04-07T06:37:48.316Z,99.90
2019-04-07T06:38:53.705Z,99.90
2019-04-07T06:39:59.276Z,99.90
2019-04-07T06:41:04.407Z,99.90
2019-04-07T06:42:09.657Z,99.90
2019-04-07T06:43:14.735Z,99.90
2019-04-07T06:44:22.467Z,99.90
2019-04-07T06:45:31.642Z,99.90
2019-04-07T06:46:42.377Z,99.90
2019-04-07T06:47:50.907Z,99.90
2019-04-07T06:49:11.324Z,99.90
2019-04-07T06:50:32.315Z,99.90
2019-04-07T06:51:51.333Z,99.90
2019-04-07T06:53:00.485Z,99.90
2019-04-07T06:54:21.613Z,99.90
2019-04-07T06:55:36.265Z,99.90
2019-04-07T06:56:52.173Z,99.90
2019-04-07T06:58:08.307Z,99.90
2019-04-07T06:59:22.946Z,99.90
2019-04-07T07:00:55.059Z,99.90
2019-04-07T07:02:17.530Z,99.90
2019-04-07T07:03:39.471Z,99.90
2019-04-07T07:05:01.578Z,99.90
2019-04-07T07:06:29.448Z,99.90
2019-04-07T07:07:42.540Z,99.90
2019-04-07T07:09:04.608Z,99.90
2019-04-07T07:10:30.352Z,99.90
2019-04-07T07:11:52.234Z,99.90
2019-04-07T07:13:28.325Z,99.90
2019-04-07T07:14:45.947Z,99.90
2019-04-07T07:16:10.456Z,99.90
2019-04-07T07:17:22.491Z,99.90
2019-04-07T07:18:45.883Z,99.90
2019-04-07T07:20:08.680Z,99.90
2019-04-07T07:21:38.738Z,99.90
2019-04-07T07:22:47.814Z,99.90
2019-04-07T07:23:52.908Z,99.90
2019-04-07T07:25:00.303Z,99.90
2019-04-07T07:26:04.904Z,99.90
2019-04-07T07:27:11.357Z,99.90
2019-04-07T07:28:17.355Z,99.90
2019-04-07T07:29:22.635Z,99.90
2019-04-07T07:30:28.283Z,99.90
2019-04-07T07:31:33.567Z,99.90
2019-04-07T07:32:38.920Z,99.90
2019-04-07T07:33:45.035Z,99.90
2019-04-07T07:34:50.765Z,99.90
2019-04-07T07:35:57.039Z,99.90
2019-04-07T07:37:02.306Z,99.90
2019-04-07T07:38:08.079Z,99.90
2019-04-07T07:39:13.858Z,99.90
2019-04-07T07:40:19.644Z,99.90
2019-04-07T07:41:25.379Z,99.90
2019-04-07T07:42:30.817Z,99.90
2019-04-07T07:43:35.948Z,99.90
2019-04-07T07:44:41.740Z,99.90
2019-04-07T07:45:48.113Z,99.90
2019-04-07T07:46:55.459Z,99.90
2019-04-07T07:48:00.951Z,99.90
2019-04-07T07:49:06.225Z,99.90
2019-04-07T07:50:12.100Z,99.90
2019-04-07T07:51:18.349Z,99.90
2019-04-07T07:52:23.491Z,99.90
2019-04-07T07:53:28.721Z,99.90
2019-04-07T07:54:35.221Z,99.90
2019-04-07T07:55:41.074Z,99.90
2019-04-07T07:56:48.704Z,99.90
2019-04-07T07:57:56.720Z,99.90
2019-04-07T07:59:01.599Z,99.90
2019-04-07T08:00:08.458Z,99.90
2019-04-07T08:01:14.854Z,99.90
2019-04-07T08:02:20.824Z,99.90
2019-04-07T08:03:27.220Z,99.90
2019-04-07T08:04:32.421Z,99.90
2019-04-07T08:05:37.632Z,99.90
2019-04-07T08:06:43.583Z,99.90
2019-04-07T08:07:50.184Z,99.90
2019-04-07T08:09:07.395Z,99.90
2019-04-07T08:10:03.014Z,99.90
2019-04-07T08:11:08.110Z,99.90
2019-04-07T08:12:13.309Z,99.90
2019-04-07T08:13:19.004Z,99.90
2019-04-07T08:14:24.244Z,99.90
2019-04-07T08:15:32.197Z,99.90
2019-04-07T08:16:37.283Z,99.90
2019-04-07T08:17:43.117Z,99.90
2019-04-07T08:18:48.328Z,99.90
2019-04-07T08:19:53.413Z,99.90
2019-04-07T08:20:58.962Z,99.90
2019-04-07T08:22:05.629Z,99.90
2019-04-07T08:23:12.116Z,99.90
2019-04-07T08:24:19.189Z,99.90
2019-04-07T08:25:25.070Z,99.90
2019-04-07T08:26:31.838Z,99.90
2019-04-07T08:27:37.100Z,99.90
2019-04-07T08:28:42.715Z,99.90
2019-04-07T08:29:48.551Z,99.90
2019-04-07T08:30:54.422Z,99.90
2019-04-07T08:31:59.682Z,99.90
2019-04-07T08:33:05.692Z,99.90
2019-04-07T08:34:10.979Z,99.90
2019-04-07T08:35:16.520Z,99.90
2019-04-07T08:36:21.611Z,99.90
2019-04-07T08:37:26.862Z,99.90
2019-04-07T08:38:32.166Z,99.90
2019-04-07T08:39:38.728Z,99.90
2019-04-07T08:40:44.548Z,99.90
2019-04-07T08:41:50.655Z,99.90
2019-04-07T08:42:56.214Z,99.90
2019-04-07T08:44:01.740Z,99.90
2019-04-07T08:45:07.174Z,99.90
2019-04-07T08:46:13.618Z,99.90
2019-04-07T08:47:21.924Z,99.90
2019-04-07T08:48:25.789Z,99.90
2019-04-07T08:49:32.816Z,99.90
2019-04-07T08:50:37.964Z,99.90
2019-04-07T08:51:43.768Z,99.90
2019-04-07T08:52:48.955Z,99.90
2019-04-07T08:53:54.696Z,99.90
2019-04-07T08:55:00.004Z,99.90
2019-04-07T08:56:08.178Z,99.90
2019-04-07T08:57:12.227Z,99.90
2019-04-07T08:58:25.222Z,99.90
2019-04-07T08:59:24.143Z,99.90
2019-04-07T09:00:29.999Z,99.90
2019-04-07T09:01:35.175Z,99.90
2019-04-07T09:02:40.516Z,99.90
2019-04-07T09:03:46.068Z,99.90
2019-04-07T09:04:52.451Z,99.90
2019-04-07T09:05:58.489Z,99.90
2019-04-07T09:07:04.370Z,99.90
2019-04-07T09:08:10.377Z,99.90
2019-04-07T09:09:15.691Z,99.90
2019-04-07T09:10:28.670Z,99.90
2019-04-07T09:11:34.572Z,99.90
2019-04-07T09:12:39.692Z,99.90
2019-04-07T09:14:06.036Z,99.90
2019-04-07T09:15:12.842Z,99.90
2019-04-07T09:16:32.217Z,99.90
2019-04-07T09:17:48.492Z,99.90
2019-04-07T09:19:28.817Z,99.90
2019-04-07T09:20:44.899Z,99.90
2019-04-07T09:22:15.509Z,99.90
2019-04-07T09:23:27.527Z,99.90
2019-04-07T09:24:55.190Z,99.90
2019-04-07T09:26:34.374Z,99.90
2019-04-07T09:28:07.648Z,99.90
2019-04-07T09:29:28.128Z,99.90
2019-04-07T09:31:00.287Z,99.90
2019-04-07T09:32:14.484Z,99.90
2019-04-07T09:33:34.755Z,99.90
2019-04-07T09:35:07.500Z,99.90
2019-04-07T09:36:48.484Z,99.90
2019-04-07T09:38:03.198Z,99.90
2019-04-07T09:39:33.919Z,99.90
2019-04-07T09:40:56.081Z,99.90
2019-04-07T09:42:10.036Z,99.90
2019-04-07T09:43:49.553Z,99.90
2019-04-07T09:45:12.676Z,99.90
2019-04-07T09:46:25.033Z,99.90
2019-04-07T09:47:58.813Z,99.90
2019-04-07T09:49:22.211Z,99.90
2019-04-07T09:50:42.958Z,99.90
2019-04-07T09:52:02.588Z,99.90
2019-04-07T09:53:37.079Z,99.90
2019-04-07T09:55:01.320Z,99.90
2019-04-07T09:56:44.052Z,99.90
2019-04-07T09:57:59.222Z,99.90
2019-04-07T09:59:29.667Z,99.90
2019-04-07T10:00:57.677Z,99.90
2019-04-07T10:02:21.415Z,99.90
2019-04-07T10:03:48.510Z,99.30
2019-04-07T10:05:19.717Z,98.50
2019-04-07T10:06:44.177Z,97.80
2019-04-07T10:08:04.369Z,97.10
2019-04-07T10:09:38.624Z,97.40
2019-04-07T10:11:07.108Z,97.90
2019-04-07T10:12:34.591Z,98.30
2019-04-07T10:14:10.729Z,97.00
2019-04-07T10:15:37.833Z,96.30
2019-04-07T10:16:51.761Z,96.00
2019-04-07T10:18:11.840Z,97.40
2019-04-07T10:19:54.088Z,97.30
2019-04-07T10:21:22.557Z,97.30
2019-04-07T10:22:47.333Z,96.40
2019-04-07T10:24:08.261Z,96.30
2019-04-07T10:25:27.953Z,96.60
2019-04-07T10:26:57.407Z,95.30
2019-04-07T10:28:22.303Z,96.30
2019-04-07T10:29:45.249Z,96.40
2019-04-07T10:31:07.751Z,95.10
2019-04-07T10:32:38.538Z,95.20
2019-04-07T10:33:50.477Z,95.10
2019-04-07T10:35:09.133Z,94.30
2019-04-07T10:36:27.057Z,95.90
2019-04-07T10:37:55.294Z,95.70
2019-04-07T10:39:34.928Z,95.30
2019-04-07T10:41:11.868Z,95.00
2019-04-07T10:42:38.878Z,95.30
2019-04-07T10:43:53.354Z,94.50
2019-04-07T10:45:04.822Z,95.30
2019-04-07T10:46:29.368Z,94.50
2019-04-07T10:47:41.211Z,94.90
2019-04-07T10:49:03.729Z,93.30
2019-04-07T10:50:28.603Z,94.20
2019-04-07T10:51:55.629Z,94.10
2019-04-07T10:53:09.369Z,94.20
2019-04-07T10:54:37.079Z,93.90
2019-04-07T10:55:52.822Z,94.30
2019-04-07T10:57:14.548Z,94.40
2019-04-07T10:58:48.297Z,95.00
2019-04-07T11:00:04.767Z,94.40
2019-04-07T11:01:26.663Z,94.60
2019-04-07T11:02:44.270Z,94.60
2019-04-07T11:04:06.300Z,94.20
2019-04-07T11:05:45.653Z,94.60
2019-04-07T11:07:03.046Z,95.00
2019-04-07T11:08:26.365Z,95.80
2019-04-07T11:09:40.638Z,95.10
2019-04-07T11:11:04.480Z,95.50
2019-04-07T11:12:32.345Z,95.30
2019-04-07T11:13:53.447Z,95.60
2019-04-07T11:15:27.096Z,94.90
2019-04-07T11:16:51.403Z,94.90
2019-04-07T11:18:19.003Z,96.40
2019-04-07T11:19:43.483Z,94.90
2019-04-07T11:21:02.224Z,95.70
2019-04-07T11:22:38.761Z,94.70
2019-04-07T11:24:03.988Z,95.30
2019-04-07T11:25:31.631Z,95.10
2019-04-07T11:27:04.931Z,95.80
2019-04-07T11:28:29.237Z,96.90
2019-04-07T11:29:41.657Z,96.30
2019-04-07T11:30:52.101Z,96.90
2019-04-07T11:32:17.746Z,97.10
2019-04-07T11:33:41.431Z,97.00
2019-04-07T11:35:14.884Z,95.70
2019-04-07T11:36:34.268Z,95.50
2019-04-07T11:38:01.479Z,95.30
2019-04-07T11:39:19.220Z,94.30
2019-04-07T11:40:48.916Z,94.50
2019-04-07T11:41:59.177Z,95.10
2019-04-07T11:43:42.432Z,94.20
2019-04-07T11:45:09.226Z,94.00
2019-04-07T11:46:24.116Z,94.00
2019-04-07T11:47:44.312Z,93.00
2019-04-07T11:48:59.035Z,92.50
2019-04-07T11:50:15.111Z,92.60
2019-04-07T11:51:34.644Z,93.10
2019-04-07T11:53:11.081Z,91.50
2019-04-07T11:54:27.481Z,91.70
2019-04-07T11:55:51.052Z,92.50
2019-04-07T11:57:13.940Z,92.20
2019-04-07T11:58:35.817Z,91.30
2019-04-07T11:59:59.013Z,91.50
2019-04-07T12:01:26.122Z,91.60
2019-04-07T12:03:06.087Z,91.70
2019-04-07T12:04:26.635Z,92.40
2019-04-07T12:05:50.783Z,92.50
2019-04-07T12:07:14.517Z,91.50
2019-04-07T12:08:44.651Z,91.50
2019-04-07T12:10:08.318Z,91.30
2019-04-07T12:11:29.927Z,91.20
2019-04-07T12:12:45.436Z,91.50
2019-04-07T12:14:15.048Z,91.30
2019-04-07T12:15:32.359Z,91.40
2019-04-07T12:16:55.040Z,91.20
2019-04-07T12:18:19.938Z,91.00
2019-04-07T12:19:39.816Z,91.50
2019-04-07T12:21:05.262Z,90.10
2019-04-07T12:22:31.559Z,88.80
2019-04-07T12:23:52.782Z,89.50
2019-04-07T12:25:23.329Z,90.60
2019-04-07T12:27:01.086Z,89.60
2019-04-07T12:28:42.210Z,89.50
2019-04-07T12:30:05.367Z,87.90
2019-04-07T12:31:22.722Z,89.60
2019-04-07T12:32:44.125Z,89.80
2019-04-07T12:34:09.515Z,88.50
2019-04-07T12:35:29.107Z,87.40
2019-04-07T12:37:06.379Z,87.60
2019-04-07T12:38:28.482Z,85.90
2019-04-07T12:39:55.501Z,84.30
2019-04-07T12:41:15.115Z,80.40
2019-04-07T12:42:26.731Z,82.10
2019-04-07T12:43:42.781Z,78.40
2019-04-07T12:44:57.081Z,80.00
2019-04-07T12:46:30.433Z,78.50
2019-04-07T12:48:04.650Z,80.20
2019-04-07T12:49:17.222Z,82.40
2019-04-07T12:50:54.123Z,80.60
2019-04-07T12:52:23.829Z,79.10
2019-04-07T12:53:47.848Z,78.60
2019-04-07T12:55:03.642Z,78.00
2019-04-07T12:56:32.097Z,78.60
2019-04-07T12:57:56.585Z,77.40
2019-04-07T12:59:30.413Z,78.10
2019-04-07T13:01:12.131Z,78.60
2019-04-07T13:02:33.791Z,80.00
2019-04-07T13:03:58.961Z,76.60
2019-04-07T13:05:30.064Z,76.80
2019-04-07T13:06:53.432Z,78.30
2019-04-07T13:08:24.108Z,77.50
2019-04-07T13:10:05.444Z,77.80
2019-04-07T13:11:31.195Z,77.50
2019-04-07T13:12:55.678Z,77.10
2019-04-07T13:14:18.417Z,78.10
2019-04-07T13:15:54.851Z,77.50
2019-04-07T13:17:17.009Z,77.10
2019-04-07T13:18:50.524Z,78.10
2019-04-07T13:20:07.255Z,79.10
2019-04-07T13:21:34.785Z,77.60
2019-04-07T13:23:02.179Z,75.00
2019-04-07T13:24:30.459Z,75.70
2019-04-07T13:26:00.822Z,76.80
2019-04-07T13:27:23.272Z,73.90
2019-04-07T13:28:44.558Z,74.30
2019-04-07T13:30:08.364Z,73.00
2019-04-07T13:31:19.235Z,74.10
2019-04-07T13:32:44.941Z,73.40
2019-04-07T13:34:09.410Z,75.20
2019-04-07T13:35:31.221Z,74.00
2019-04-07T13:36:45.162Z,73.40
2019-04-07T13:38:15.411Z,73.30
2019-04-07T13:39:41.506Z,74.20
2019-04-07T13:40:54.154Z,71.90
2019-04-07T13:42:29.238Z,70.00
2019-04-07T13:43:53.344Z,70.90
2019-04-07T13:45:26.368Z,70.90
2019-04-07T13:46:49.454Z,72.20
2019-04-07T13:48:15.811Z,71.80
2019-04-07T13:49:45.828Z,72.90
2019-04-07T13:51:25.128Z,72.60
2019-04-07T13:52:40.320Z,73.00
2019-04-07T13:53:59.868Z,74.00
2019-04-07T13:55:15.258Z,75.20
2019-04-07T13:56:51.989Z,75.10
2019-04-07T13:58:02.613Z,72.80
2019-04-07T13:59:22.651Z,70.80
2019-04-07T14:00:54.293Z,71.70
2019-04-07T14:02:17.599Z,70.00
2019-04-07T14:03:35.761Z,71.60
2019-04-07T14:04:46.624Z,70.90
2019-04-07T14:06:20.461Z,71.30
2019-04-07T14:07:43.926Z,71.40
2019-04-07T14:08:59.147Z,69.00
2019-04-07T14:10:28.408Z,69.50
2019-04-07T14:12:01.943Z,70.90
2019-04-07T14:13:10.419Z,69.60
2019-04-07T14:14:33.462Z,70.20
2019-04-07T14:16:04.021Z,70.70
2019-04-07T14:17:27.305Z,71.50
2019-04-07T14:18:54.349Z,72.50
2019-04-07T14:20:08.822Z,73.60
2019-04-07T14:21:36.210Z,74.10
2019-04-07T14:22:48.823Z,74.80
2019-04-07T14:24:19.818Z,76.30
2019-04-07T14:25:52.735Z,75.30
2019-04-07T14:27:04.438Z,74.20
2019-04-07T14:28:24.489Z,75.20
2019-04-07T14:29:45.980Z,73.90
2019-04-07T14:31:16.449Z,74.40
2019-04-07T14:32:33.940Z,73.20
2019-04-07T14:33:57.499Z,72.90
2019-04-07T14:35:12.966Z,71.30
2019-04-07T14:36:27.254Z,71.10
2019-04-07T14:37:54.696Z,71.40
2019-04-07T14:39:18.863Z,71.60
2019-04-07T14:40:49.038Z,72.70
2019-04-07T14:42:31.717Z,72.60
2019-04-07T14:43:44.264Z,72.60
2019-04-07T14:44:55.547Z,70.90
2019-04-07T14:46:21.163Z,72.60
2019-04-07T14:47:41.459Z,72.20
2019-04-07T14:49:05.518Z,73.70
2019-04-07T14:50:26.679Z,72.80
2019-04-07T14:51:51.463Z,71.60
2019-04-07T14:53:08.822Z,72.60
2019-04-07T14:54:31.908Z,74.10
2019-04-07T14:55:50.947Z,74.70
2019-04-07T14:57:11.599Z,75.30
2019-04-07T14:58:25.838Z,73.10
2019-04-07T14:59:54.526Z,74.10
2019-04-07T15:01:12.727Z,74.60
2019-04-07T15:02:17.955Z,75.10
2019-04-07T15:03:23.421Z,75.60
2019-04-07T15:04:43.358Z,76.00
2019-04-07T15:05:49.424Z,76.20
2019-04-07T15:07:09.234Z,75.80
2019-04-07T15:08:46.295Z,75.40
2019-04-07T15:09:56.551Z,75.90
2019-04-07T15:11:15.851Z,76.30
2019-04-07T15:12:40.420Z,75.60
2019-04-07T15:13:45.601Z,75.80
2019-04-07T15:14:50.779Z,75.00
2019-04-07T15:15:56.068Z,75.40
2019-04-07T15:17:01.340Z,75.80
2019-04-07T15:18:07.239Z,75.60
2019-04-07T15:19:12.434Z,75.00
2019-04-07T15:20:17.613Z,75.10
2019-04-07T15:21:23.864Z,75.50
2019-04-07T15:22:31.081Z,74.60
2019-04-07T15:23:36.896Z,75.50
2019-04-07T15:24:42.787Z,75.00
2019-04-07T15:25:48.177Z,75.70
2019-04-07T15:26:54.059Z,74.20
2019-04-07T15:28:00.399Z,74.00
2019-04-07T15:29:09.588Z,74.60
2019-04-07T15:30:16.904Z,74.80
2019-04-07T15:31:23.265Z,74.70
2019-04-07T15:32:31.338Z,74.50
2019-04-07T15:33:37.083Z,73.50
2019-04-07T15:34:43.358Z,74.70
2019-04-07T15:35:50.504Z,74.10
2019-04-07T15:36:56.783Z,74.20
2019-04-07T15:38:02.057Z,73.80
2019-04-07T15:39:09.848Z,74.20
2019-04-07T15:40:15.192Z,75.20
2019-04-07T15:41:22.170Z,75.30
2019-04-07T15:42:35.209Z,76.00
2019-04-07T15:43:35.289Z,75.50
2019-04-07T15:44:42.211Z,75.40
2019-04-07T15:45:48.745Z,75.30
2019-04-07T15:46:54.575Z,75.80
2019-04-07T15:48:00.681Z,75.70
2019-04-07T15:49:06.843Z,76.00
2019-04-07T15:50:13.755Z,75.80
2019-04-07T15:51:19.617Z,75.80
2019-04-07T15:52:24.891Z,76.30
2019-04-07T15:53:30.830Z,76.10
2019-04-07T15:54:37.063Z,76.10
2019-04-07T15:55:47.428Z,75.60
2019-04-07T15:56:50.155Z,76.40
2019-04-07T15:57:58.380Z,76.40
2019-04-07T15:59:03.648Z,76.50
2019-04-07T16:00:10.036Z,76.30
2019-04-07T16:01:16.097Z,76.30
2019-04-07T16:02:21.340Z,76.20
2019-04-07T16:03:26.633Z,77.40
2019-04-07T16:04:32.005Z,77.80
2019-04-07T16:05:42.010Z,78.40
2019-04-07T16:06:47.111Z,76.80
2019-04-07T16:07:53.084Z,76.60
2019-04-07T16:09:00.210Z,77.10
2019-04-07T16:10:05.926Z,76.00
2019-04-07T16:11:11.537Z,75.80
2019-04-07T16:12:16.856Z,76.30
2019-04-07T16:13:22.810Z,76.20
2019-04-07T16:14:28.083Z,76.80
2019-04-07T16:15:33.336Z,76.70
2019-04-07T16:16:40.330Z,76.90
2019-04-07T16:17:47.437Z,77.70